Time;durP1;ratioP1;P1;durP2;ratioP2;P2;SDS_P1;SDS_P2;PMS_P1;PMS_P2;Temp;Humidity;BMP_temperature;BMP_pressure;BME280_temperature;BME280_humidity;BME280_pressure;Samples;Min_cycle;Max_cycle;Signal;HPM_P1;HPM_P2
2023/08/07 00:00:31;;;;;;;9.63;5.57;;;13.10;99.90;;;;;;5051382;28;20041;-80
2023/08/07 00:02:57;;;;;;;9.73;5.80;;;13.10;99.90;;;;;;5052077;28;20100;-79
2023/08/07 00:05:22;;;;;;;12.18;6.55;;;13.10;99.90;;;;;;5052830;28;20028;-79
2023/08/07 00:07:48;;;;;;;7.22;5.05;;;13.10;99.90;;;;;;5052191;28;20029;-79
2023/08/07 00:10:14;;;;;;;8.65;5.20;;;13.10;99.90;;;;;;5051262;28;20041;-80
2023/08/07 00:12:39;;;;;;;5.38;4.53;;;13.10;99.90;;;;;;5058467;28;20498;-80
2023/08/07 00:15:06;;;;;;;11.32;6.00;;;13.10;99.90;;;;;;5059191;28;20091;-79
2023/08/07 00:17:31;;;;;;;6.63;4.75;;;13.10;99.90;;;;;;5058792;28;20033;-79
2023/08/07 00:19:57;;;;;;;8.20;4.70;;;13.10;99.90;;;;;;5058033;28;20090;-78
2023/08/07 00:22:23;;;;;;;6.95;4.70;;;13.10;99.90;;;;;;5057894;28;20489;-79
2023/08/07 00:24:49;;;;;;;5.88;4.75;;;13.10;99.90;;;;;;5059256;28;20021;-79
2023/08/07 00:27:14;;;;;;;6.05;5.00;;;13.10;99.90;;;;;;5057834;28;20031;-79
2023/08/07 00:29:40;;;;;;;5.10;4.40;;;13.10;99.90;;;;;;5058972;28;20039;-79
2023/08/07 00:32:06;;;;;;;6.45;4.45;;;13.10;99.90;;;;;;5057529;28;20371;-78
2023/08/07 00:34:32;;;;;;;8.07;5.00;;;13.10;99.90;;;;;;5057924;28;20490;-79
2023/08/07 00:36:58;;;;;;;6.18;4.30;;;13.10;99.90;;;;;;5058704;28;20074;-78
2023/08/07 00:39:24;;;;;;;5.82;4.43;;;13.10;99.90;;;;;;5057891;28;20017;-80
2023/08/07 00:41:50;;;;;;;7.22;4.47;;;13.10;99.90;;;;;;5057246;28;20029;-80
2023/08/07 00:44:16;;;;;;;5.65;4.43;;;13.10;99.90;;;;;;5059141;28;20028;-78
2023/08/07 00:46:42;;;;;;;5.38;4.38;;;13.10;99.90;;;;;;5058774;28;20016;-79
2023/08/07 00:49:10;;;;;;;6.03;4.85;;;13.10;99.90;;;;;;5058944;28;20109;-78
2023/08/07 00:51:37;;;;;;;6.07;4.40;;;13.00;99.90;;;;;;5057516;28;20029;-78
2023/08/07 00:54:05;;;;;;;8.07;5.53;;;13.00;99.90;;;;;;5057514;28;20025;-80
2023/08/07 00:56:31;;;;;;;6.68;4.55;;;13.00;99.90;;;;;;5057231;28;20022;-79
2023/08/07 00:59:01;;;;;;;7.90;5.78;;;13.00;99.90;;;;;;5058761;28;20057;-80
2023/08/07 01:01:27;;;;;;;6.80;4.88;;;13.00;99.90;;;;;;5058123;28;20490;-78
2023/08/07 01:03:53;;;;;;;8.93;5.93;;;13.00;99.90;;;;;;5057300;28;20053;-78
2023/08/07 01:06:19;;;;;;;11.40;6.20;;;13.00;99.90;;;;;;5058676;28;20017;-79
2023/08/07 01:08:45;;;;;;;7.72;6.40;;;12.90;99.90;;;;;;5058700;28;20075;-80
2023/08/07 01:11:30;;;;;;;10.60;7.07;;;12.90;99.90;;;;;;5058700;28;20379;-79
2023/08/07 01:14:10;;;;;;;10.40;7.30;;;12.90;99.90;;;;;;5057303;28;20021;-79
2023/08/07 01:16:40;;;;;;;12.45;7.22;;;12.90;99.90;;;;;;5043477;28;20052;-79
2023/08/07 01:19:14;;;;;;;11.43;7.70;;;12.90;99.90;;;;;;5056404;28;20440;-79
2023/08/07 01:21:39;;;;;;;11.15;8.68;;;12.90;99.90;;;;;;5057724;28;20087;-79
2023/08/07 01:24:05;;;;;;;15.18;9.82;;;12.90;99.90;;;;;;5052764;28;20068;-77
2023/08/07 01:26:34;;;;;;;14.20;10.00;;;12.90;99.90;;;;;;5055566;28;20021;-80
2023/08/07 01:29:12;;;;;;;18.10;10.35;;;12.90;99.90;;;;;;5055284;28;20386;-78
2023/08/07 01:31:40;;;;;;;17.73;11.25;;;12.90;99.90;;;;;;5055599;28;20055;-80
2023/08/07 01:34:08;;;;;;;14.65;10.70;;;12.90;99.90;;;;;;5054105;28;20052;-80
2023/08/07 01:36:34;;;;;;;16.27;11.32;;;12.90;99.90;;;;;;5054065;28;20020;-80
2023/08/07 01:39:01;;;;;;;19.45;12.30;;;12.90;99.90;;;;;;5055014;28;20021;-79
2023/08/07 01:41:27;;;;;;;22.05;14.23;;;12.90;99.90;;;;;;5055478;28;20040;-80
2023/08/07 01:43:54;;;;;;;20.98;14.48;;;12.90;99.90;;;;;;5052299;28;20023;-80
2023/08/07 01:46:20;;;;;;;22.92;14.00;;;12.90;99.90;;;;;;5055044;28;20378;-80
2023/08/07 01:48:46;;;;;;;19.95;14.43;;;12.90;99.90;;;;;;5054653;28;20021;-79
2023/08/07 01:51:11;;;;;;;21.13;14.15;;;12.90;99.90;;;;;;5052392;28;20031;-78
2023/08/07 01:53:37;;;;;;;19.20;13.40;;;12.90;99.90;;;;;;5042264;28;20109;-79
2023/08/07 01:56:03;;;;;;;20.45;14.98;;;12.80;99.90;;;;;;5053504;28;20036;-79
2023/08/07 01:58:28;;;;;;;25.08;15.48;;;12.80;99.90;;;;;;5053758;28;20033;-79
2023/08/07 02:00:54;;;;;;;25.00;14.95;;;12.80;99.90;;;;;;5053454;28;20059;-80
2023/08/07 02:03:20;;;;;;;25.70;15.13;;;12.80;99.90;;;;;;5054763;28;20041;-80
2023/08/07 02:05:46;;;;;;;24.67;16.08;;;12.80;99.90;;;;;;5054841;28;20104;-80
2023/08/07 02:08:12;;;;;;;26.65;15.90;;;12.70;99.90;;;;;;5053535;28;20105;-79
2023/08/07 02:10:38;;;;;;;24.55;15.00;;;12.80;99.90;;;;;;5053451;28;20041;-79
2023/08/07 02:13:03;;;;;;;23.25;15.43;;;12.80;99.90;;;;;;5054722;28;20021;-79
2023/08/07 02:15:29;;;;;;;25.13;15.00;;;12.80;99.90;;;;;;5054643;28;20032;-79
2023/08/07 02:17:55;;;;;;;25.48;16.85;;;12.80;99.90;;;;;;5053242;28;20032;-79
2023/08/07 02:20:21;;;;;;;25.95;17.67;;;12.80;99.90;;;;;;5041876;28;20100;-78
2023/08/07 02:22:46;;;;;;;28.75;17.55;;;12.80;99.90;;;;;;5053183;28;20013;-78
2023/08/07 02:25:12;;;;;;;23.50;16.27;;;12.80;99.90;;;;;;5052996;28;20079;-78
2023/08/07 02:27:37;;;;;;;23.48;14.90;;;12.90;99.90;;;;;;5052954;28;20025;-78
2023/08/07 02:30:03;;;;;;;27.00;15.93;;;12.90;99.90;;;;;;5052811;28;20032;-78
2023/08/07 02:32:30;;;;;;;26.45;15.85;;;12.80;99.90;;;;;;5054340;28;20021;-78
2023/08/07 02:34:55;;;;;;;25.75;16.33;;;12.90;99.90;;;;;;5051900;28;20032;-79
2023/08/07 02:37:21;;;;;;;25.77;15.07;;;12.90;99.90;;;;;;5054476;28;20401;-78
2023/08/07 02:39:47;;;;;;;28.10;16.45;;;12.80;99.90;;;;;;5054043;28;20021;-78
2023/08/07 02:42:12;;;;;;;26.52;16.98;;;12.80;99.90;;;;;;5052679;28;20033;-78
2023/08/07 02:44:38;;;;;;;22.30;15.65;;;12.80;99.90;;;;;;5053919;28;20024;-78
2023/08/07 02:47:04;;;;;;;24.10;14.52;;;12.80;99.90;;;;;;5054330;28;20424;-78
2023/08/07 02:49:30;;;;;;;23.35;15.25;;;12.80;99.90;;;;;;5053554;28;20033;-78
2023/08/07 02:51:55;;;;;;;24.85;14.70;;;12.80;99.90;;;;;;5053926;28;20062;-78
2023/08/07 02:54:21;;;;;;;26.30;14.20;;;12.80;99.90;;;;;;5053867;28;20098;-79
2023/08/07 02:56:48;;;;;;;20.95;14.57;;;12.90;99.90;;;;;;5041885;28;20542;-78
2023/08/07 02:59:14;;;;;;;29.08;14.48;;;12.90;99.90;;;;;;5052466;28;20459;-78
2023/08/07 03:01:40;;;;;;;30.23;15.88;;;12.90;99.90;;;;;;5052596;28;20028;-78
2023/08/07 03:04:06;;;;;;;25.92;15.75;;;12.90;99.90;;;;;;5052319;28;20060;-78
2023/08/07 03:06:32;;;;;;;30.20;17.60;;;12.90;99.90;;;;;;5052379;28;20025;-78
2023/08/07 03:08:57;;;;;;;29.73;17.35;;;12.90;99.90;;;;;;5052282;28;20037;-78
2023/08/07 03:11:23;;;;;;;26.02;17.27;;;12.90;99.90;;;;;;5052376;28;20052;-78
2023/08/07 03:13:49;;;;;;;34.20;19.05;;;12.90;99.90;;;;;;5053445;28;20025;-79
2023/08/07 03:16:15;;;;;;;36.22;20.52;;;12.90;99.90;;;;;;5042537;28;20554;-79
2023/08/07 03:18:40;;;;;;;37.90;20.00;;;12.90;99.90;;;;;;5053231;28;20025;-79
2023/08/07 03:21:06;;;;;;;34.50;21.52;;;12.90;99.90;;;;;;5053683;28;20367;-79
2023/08/07 03:23:32;;;;;;;32.05;20.88;;;12.90;99.90;;;;;;5051602;28;20537;-79
2023/08/07 03:26:05;;;;;;;38.10;22.05;;;12.90;99.90;;;;;;5051485;28;20025;-78
2023/08/07 03:28:32;;;;;;;38.05;22.58;;;12.90;99.90;;;;;;5051750;28;20043;-79
2023/08/07 03:30:58;;;;;;;36.50;20.80;;;12.90;99.90;;;;;;5053112;28;20095;-78
2023/08/07 03:33:23;;;;;;;35.03;21.42;;;12.90;99.90;;;;;;5051735;28;20025;-78
2023/08/07 03:35:49;;;;;;;32.83;18.95;;;12.90;99.90;;;;;;5051803;28;20060;-79
2023/08/07 03:38:15;;;;;;;32.03;20.55;;;12.90;99.90;;;;;;5051505;28;20055;-79
2023/08/07 03:40:40;;;;;;;28.92;19.88;;;12.90;99.90;;;;;;5051917;28;20024;-80
2023/08/07 03:43:06;;;;;;;27.38;17.40;;;12.90;99.90;;;;;;5051383;28;20013;-79
2023/08/07 03:45:31;;;;;;;26.10;16.65;;;13.00;99.90;;;;;;5043394;28;20075;-79
2023/08/07 03:47:57;;;;;;;27.23;17.35;;;13.00;99.90;;;;;;5046319;28;20429;-79
2023/08/07 03:50:22;;;;;;;24.52;17.55;;;13.00;99.90;;;;;;5053175;28;20154;-79
2023/08/07 03:52:48;;;;;;;24.40;17.23;;;13.00;99.90;;;;;;5043507;28;20022;-79
2023/08/07 03:55:14;;;;;;;23.85;17.27;;;13.00;99.90;;;;;;5052859;28;20439;-79
2023/08/07 03:57:39;;;;;;;22.35;16.20;;;13.00;99.90;;;;;;5052832;28;20074;-79
2023/08/07 04:00:06;;;;;;;25.40;17.48;;;13.00;99.90;;;;;;5052792;28;20017;-79
2023/08/07 04:02:31;;;;;;;23.65;17.25;;;13.00;99.90;;;;;;5051499;28;20021;-79
2023/08/07 04:04:57;;;;;;;23.95;16.88;;;13.10;99.90;;;;;;5052559;28;20102;-78
2023/08/07 04:07:22;;;;;;;24.65;16.60;;;13.00;99.90;;;;;;5052885;28;20056;-80
2023/08/07 04:09:48;;;;;;;29.30;18.50;;;13.10;99.90;;;;;;5052677;28;20037;-80
2023/08/07 04:12:14;;;;;;;23.63;16.85;;;13.10;99.90;;;;;;5052597;28;20509;-80
2023/08/07 04:14:39;;;;;;;25.35;17.08;;;13.10;99.90;;;;;;5051307;28;20016;-78
2023/08/07 04:17:05;;;;;;;23.63;16.75;;;13.10;99.90;;;;;;5049574;28;20025;-79
2023/08/07 04:19:30;;;;;;;22.65;16.13;;;13.10;99.90;;;;;;5048122;28;20025;-78
2023/08/07 04:21:56;;;;;;;25.02;16.75;;;13.10;99.90;;;;;;5052600;28;20021;-78
2023/08/07 04:24:22;;;;;;;20.98;16.38;;;13.10;99.90;;;;;;5050079;28;20036;-79
2023/08/07 04:26:47;;;;;;;18.65;15.13;;;13.10;99.90;;;;;;5052398;28;20029;-78
2023/08/07 04:29:13;;;;;;;22.48;15.13;;;13.10;99.90;;;;;;5051597;28;20063;-79
2023/08/07 04:31:39;;;;;;;18.88;14.02;;;13.20;99.90;;;;;;5052686;28;20044;-80
2023/08/07 04:34:04;;;;;;;19.35;13.75;;;13.20;99.90;;;;;;5051116;28;20381;-80
2023/08/07 04:36:30;;;;;;;18.70;13.02;;;13.20;99.90;;;;;;5052353;28;20025;-79
2023/08/07 04:38:56;;;;;;;15.43;13.13;;;13.30;99.90;;;;;;5051354;28;20029;-79
2023/08/07 04:41:22;;;;;;;18.10;12.55;;;13.30;99.90;;;;;;5052012;28;20382;-80
2023/08/07 04:43:48;;;;;;;14.70;11.63;;;13.30;99.90;;;;;;5039566;28;20025;-80
2023/08/07 04:46:14;;;;;;;17.45;12.38;;;13.30;99.90;;;;;;5050925;28;20494;-80
2023/08/07 04:48:40;;;;;;;11.95;10.65;;;13.30;99.90;;;;;;5051467;28;20050;-79
2023/08/07 04:51:07;;;;;;;12.52;10.73;;;13.40;99.90;;;;;;5045712;28;20037;-79
2023/08/07 04:53:32;;;;;;;12.00;10.23;;;13.40;99.90;;;;;;5049596;28;20091;-80
2023/08/07 04:56:02;;;;;;;11.13;9.98;;;13.40;99.90;;;;;;5051111;28;20025;-80
2023/08/07 04:58:28;;;;;;;12.93;10.57;;;13.50;99.90;;;;;;5050366;28;20040;-79
2023/08/07 05:00:57;;;;;;;11.52;9.52;;;13.50;99.90;;;;;;5044236;28;20475;-80
2023/08/07 05:03:23;;;;;;;12.02;10.75;;;13.60;99.90;;;;;;5054436;28;20075;-80
2023/08/07 05:05:48;;;;;;;14.73;9.93;;;13.70;99.90;;;;;;5054515;28;20025;-79
2023/08/07 05:08:14;;;;;;;11.32;8.90;;;13.70;99.90;;;;;;5055801;28;20108;-78
2023/08/07 05:10:40;;;;;;;11.35;10.20;;;13.80;99.90;;;;;;5055340;28;20039;-79
2023/08/07 05:13:05;;;;;;;10.93;9.57;;;13.80;99.90;;;;;;5055619;28;20531;-79
2023/08/07 05:15:31;;;;;;;12.82;9.57;;;13.90;99.90;;;;;;5051762;28;20438;-80
2023/08/07 05:17:57;;;;;;;10.10;9.10;;;13.90;99.90;;;;;;5054812;28;20111;-80
2023/08/07 05:20:22;;;;;;;11.70;9.00;;;14.00;99.90;;;;;;5042790;28;20109;-80
2023/08/07 05:22:48;;;;;;;9.32;8.43;;;14.00;99.90;;;;;;5046110;28;20013;-80
2023/08/07 05:25:18;;;;;;;9.60;8.32;;;14.10;99.90;;;;;;5048723;28;20020;-79
2023/08/07 05:27:47;;;;;;;11.25;8.07;;;14.10;99.90;;;;;;5048503;28;20017;-80
2023/08/07 05:30:13;;;;;;;9.77;8.52;;;14.10;99.90;;;;;;5037156;28;20041;-80
2023/08/07 05:32:39;;;;;;;9.77;7.25;;;14.20;99.90;;;;;;5043476;28;20096;-78
2023/08/07 05:35:06;;;;;;;9.13;7.38;;;14.20;99.90;;;;;;5036253;28;20041;-79
2023/08/07 05:37:36;;;;;;;7.78;7.07;;;14.30;99.90;;;;;;5054103;28;20486;-78
2023/08/07 05:40:02;;;;;;;8.73;7.93;;;14.30;99.90;;;;;;5053989;28;20512;-79
2023/08/07 05:42:28;;;;;;;7.20;6.32;;;14.30;99.90;;;;;;5052953;28;20028;-79
2023/08/07 05:44:53;;;;;;;7.50;6.80;;;14.40;99.90;;;;;;5044768;28;20029;-79
2023/08/07 05:47:19;;;;;;;7.22;6.22;;;14.40;99.90;;;;;;5054111;28;20029;-79
2023/08/07 05:49:44;;;;;;;6.32;5.75;;;14.30;99.90;;;;;;5034673;28;20456;-78
2023/08/07 05:52:10;;;;;;;5.97;5.47;;;14.40;99.90;;;;;;5031415;28;20025;-78
2023/08/07 05:54:36;;;;;;;7.90;5.97;;;14.30;99.90;;;;;;5033744;28;20049;-78
2023/08/07 05:57:01;;;;;;;6.18;5.68;;;14.30;99.90;;;;;;5030643;28;20437;-81
2023/08/07 05:59:28;;;;;;;5.50;5.00;;;14.40;99.90;;;;;;5036057;28;20026;-80
2023/08/07 06:01:55;;;;;;;5.22;4.72;;;14.40;99.90;;;;;;5035992;28;20548;-78
2023/08/07 06:04:21;;;;;;;6.15;5.07;;;14.40;99.90;;;;;;5040962;28;20041;-80
2023/08/07 06:06:47;;;;;;;5.95;4.60;;;14.40;99.90;;;;;;5049757;28;20018;-79
2023/08/07 06:09:16;;;;;;;6.13;5.13;;;14.50;99.90;;;;;;5033007;28;20032;-78
2023/08/07 06:11:42;;;;;;;4.30;3.97;;;14.50;99.90;;;;;;5050137;28;20447;-80
2023/08/07 06:14:08;;;;;;;4.28;3.53;;;14.60;99.90;;;;;;5048253;28;20031;-81
2023/08/07 06:16:33;;;;;;;4.78;3.40;;;14.60;99.90;;;;;;5043819;28;20032;-81
2023/08/07 06:18:59;;;;;;;4.18;3.42;;;14.60;99.90;;;;;;5042440;28;20025;-81
2023/08/07 06:21:24;;;;;;;4.00;3.70;;;14.60;99.90;;;;;;5046296;28;20074;-81
2023/08/07 06:23:50;;;;;;;3.83;3.22;;;14.60;99.90;;;;;;5039863;28;20096;-81
2023/08/07 06:26:16;;;;;;;4.13;3.83;;;14.50;99.90;;;;;;5044282;28;20471;-81
2023/08/07 06:28:42;;;;;;;5.53;3.72;;;14.50;99.90;;;;;;5040113;28;20045;-81
2023/08/07 06:31:10;;;;;;;3.95;3.65;;;14.50;99.90;;;;;;5046540;28;20080;-80
2023/08/07 06:33:36;;;;;;;5.55;3.20;;;14.50;99.90;;;;;;5048976;28;20438;-80
2023/08/07 06:36:03;;;;;;;4.03;3.53;;;14.50;99.90;;;;;;5051685;28;20064;-80
2023/08/07 06:38:29;;;;;;;3.53;3.22;;;14.50;99.90;;;;;;5050640;28;20025;-80
2023/08/07 06:40:55;;;;;;;4.32;3.53;;;14.50;99.90;;;;;;5045782;28;20055;-78
2023/08/07 06:43:23;;;;;;;2.67;2.47;;;14.40;99.90;;;;;;5037937;28;20033;-79
2023/08/07 06:45:53;;;;;;;2.92;2.50;;;14.30;99.90;;;;;;5034268;28;20017;-78
2023/08/07 06:48:19;;;;;;;3.38;2.20;;;14.30;99.90;;;;;;5046985;28;20159;-79
2023/08/07 06:50:46;;;;;;;2.35;2.25;;;14.20;99.90;;;;;;5036722;28;20112;-80
2023/08/07 06:53:12;;;;;;;3.03;2.83;;;14.20;99.90;;;;;;5039953;28;20037;-80
2023/08/07 06:55:38;;;;;;;2.80;2.60;;;14.20;99.90;;;;;;5034429;28;20109;-80
2023/08/07 06:58:03;;;;;;;2.65;2.28;;;14.20;99.90;;;;;;5038331;28;20382;-80
2023/08/07 07:00:29;;;;;;;2.67;2.47;;;14.20;99.90;;;;;;5035180;28;20021;-80
2023/08/07 07:02:55;;;;;;;2.50;2.30;;;14.20;99.90;;;;;;5035150;28;20494;-81
2023/08/07 07:05:21;;;;;;;2.42;2.33;;;14.20;99.90;;;;;;5033609;28;20528;-81
2023/08/07 07:07:46;;;;;;;2.38;2.17;;;14.20;99.90;;;;;;5036159;28;20096;-80
2023/08/07 07:10:12;;;;;;;2.60;2.33;;;14.30;99.90;;;;;;5032152;28;20423;-81
2023/08/07 07:12:38;;;;;;;2.40;2.20;;;14.30;99.90;;;;;;5044574;28;20476;-80
2023/08/07 07:15:04;;;;;;;2.15;2.05;;;14.30;99.90;;;;;;5033413;28;20124;-81
2023/08/07 07:17:29;;;;;;;2.35;2.25;;;14.30;99.90;;;;;;5034324;28;20459;-81
2023/08/07 07:19:56;;;;;;;2.50;2.30;;;14.30;99.90;;;;;;5034274;28;20033;-80
2023/08/07 07:22:22;;;;;;;2.35;2.17;;;14.30;99.90;;;;;;5036254;28;20025;-81
2023/08/07 07:24:48;;;;;;;2.40;2.13;;;14.30;99.90;;;;;;5043225;28;20037;-80
2023/08/07 07:27:13;;;;;;;2.40;1.67;;;14.20;99.90;;;;;;5048559;28;20029;-80
2023/08/07 07:29:39;;;;;;;2.63;2.42;;;14.20;99.90;;;;;;5042092;28;20041;-80
2023/08/07 07:32:05;;;;;;;3.25;1.85;;;14.20;99.90;;;;;;5040334;28;20017;-82
2023/08/07 07:34:31;;;;;;;2.88;2.25;;;14.40;99.90;;;;;;5038033;28;20038;-81
2023/08/07 07:36:56;;;;;;;2.95;2.63;;;14.50;99.90;;;;;;5035138;28;20387;-81
2023/08/07 07:39:22;;;;;;;3.50;3.20;;;14.50;99.90;;;;;;5033845;28;20034;-81
2023/08/07 07:41:48;;;;;;;5.05;4.50;;;14.60;99.90;;;;;;5035100;28;20043;-81
2023/08/07 07:44:13;;;;;;;10.15;7.20;;;14.70;99.90;;;;;;5035481;28;20022;-81
2023/08/07 07:46:39;;;;;;;20.83;13.90;;;14.70;99.90;;;;;;5047612;28;20059;-81
2023/08/07 07:49:05;;;;;;;29.40;19.00;;;14.90;99.90;;;;;;5039206;28;20045;-81
2023/08/07 07:51:31;;;;;;;5.38;4.22;;;14.90;99.90;;;;;;5049885;28;20025;-81
2023/08/07 07:53:58;;;;;;;23.95;13.13;;;15.00;99.90;;;;;;5049458;28;20032;-81
2023/08/07 07:56:23;;;;;;;9.85;5.85;;;14.80;99.90;;;;;;5050523;28;20013;-81
2023/08/07 07:58:49;;;;;;;29.75;18.15;;;14.70;99.90;;;;;;5050491;28;20432;-81
2023/08/07 08:01:15;;;;;;;80.43;42.55;;;14.70;99.90;;;;;;5047260;28;20116;-81
2023/08/07 08:03:40;;;;;;;44.15;23.15;;;14.60;99.90;;;;;;5048510;28;20037;-78
2023/08/07 08:06:06;;;;;;;32.55;17.60;;;14.60;99.90;;;;;;5045464;28;20081;-78
2023/08/07 08:08:32;;;;;;;16.70;10.23;;;14.60;99.90;;;;;;5051255;28;20021;-81
2023/08/07 08:10:57;;;;;;;66.82;32.05;;;14.40;99.90;;;;;;5043941;28;20499;-79
2023/08/07 08:13:25;;;;;;;120.95;54.10;;;14.30;99.90;;;;;;5041149;28;20066;-79
2023/08/07 08:15:50;;;;;;;162.48;73.60;;;14.30;99.90;;;;;;5049250;28;20123;-79
2023/08/07 08:18:16;;;;;;;191.82;82.80;;;14.20;99.90;;;;;;5049961;28;20099;-79
2023/08/07 08:20:42;;;;;;;138.80;59.13;;;14.20;99.90;;;;;;5049425;28;20477;-79
2023/08/07 08:23:07;;;;;;;99.45;41.47;;;14.20;99.90;;;;;;5032602;28;20071;-80
2023/08/07 08:25:33;;;;;;;106.55;42.72;;;14.20;99.90;;;;;;5047192;28;20044;-80
2023/08/07 08:28:00;;;;;;;168.52;62.80;;;14.20;99.90;;;;;;5045974;28;20017;-79
2023/08/07 08:30:26;;;;;;;110.85;41.58;;;14.10;99.90;;;;;;5040089;28;20068;-80
2023/08/07 08:32:51;;;;;;;241.10;90.50;;;14.10;99.90;;;;;;5042544;28;20030;-80
2023/08/07 08:35:17;;;;;;;273.52;100.57;;;14.20;99.90;;;;;;5043631;28;20021;-80
2023/08/07 08:37:43;;;;;;;226.00;84.85;;;14.20;99.90;;;;;;5041874;28;20060;-81
2023/08/07 08:40:16;;;;;;;209.10;74.80;;;14.10;99.90;;;;;;5042734;28;20033;-82
2023/08/07 08:42:44;;;;;;;228.30;79.22;;;14.20;99.90;;;;;;5053935;28;20025;-82
2023/08/07 08:45:12;;;;;;;295.42;105.88;;;14.10;99.90;;;;;;5041191;28;20123;-82
2023/08/07 08:47:40;;;;;;;164.25;61.13;;;14.10;99.90;;;;;;5036740;28;20040;-82
2023/08/07 08:50:14;;;;;;;220.05;79.53;;;14.10;99.90;;;;;;5039824;28;20045;-80
2023/08/07 08:52:44;;;;;;;169.18;62.30;;;14.10;99.90;;;;;;5035745;28;20080;-80
2023/08/07 08:55:11;;;;;;;162.98;64.68;;;14.20;99.90;;;;;;5037603;28;20044;-80
2023/08/07 08:57:39;;;;;;;175.63;63.42;;;14.20;99.90;;;;;;5037651;28;20386;-81
2023/08/07 09:00:18;;;;;;;146.02;55.80;;;14.30;99.90;;;;;;5041437;28;20034;-81
2023/08/07 09:02:51;;;;;;;105.03;43.45;;;14.40;99.90;;;;;;5040970;28;20148;-80
2023/08/07 09:05:19;;;;;;;143.68;55.20;;;14.40;99.90;;;;;;5048890;28;20041;-83
2023/08/07 09:07:46;;;;;;;127.18;53.58;;;14.40;99.90;;;;;;5052750;28;20013;-83
2023/08/07 09:10:13;;;;;;;80.85;29.95;;;14.60;99.90;;;;;;5052733;28;20191;-80
2023/08/07 09:12:59;;;;;;;38.95;13.30;;;14.60;99.90;;;;;;5054313;28;20495;-80
2023/08/07 09:15:25;;;;;;;16.98;7.50;;;14.70;99.90;;;;;;5054244;28;20155;-79
2023/08/07 09:17:53;;;;;;;9.50;6.13;;;14.80;99.90;;;;;;5052766;28;20033;-79
2023/08/07 09:20:19;;;;;;;10.13;6.30;;;14.80;99.90;;;;;;5053280;28;20032;-79
2023/08/07 09:22:45;;;;;;;9.93;6.65;;;14.80;99.90;;;;;;5052731;28;20028;-81
2023/08/07 09:25:10;;;;;;;9.65;6.35;;;14.80;99.90;;;;;;5040307;28;20033;-83
2023/08/07 09:27:39;;;;;;;10.07;6.50;;;14.80;99.90;;;;;;5054459;28;20017;-83
2023/08/07 09:30:09;;;;;;;11.48;7.13;;;14.80;99.90;;;;;;5042626;28;20406;-84
2023/08/07 09:32:35;;;;;;;9.73;7.60;;;14.90;99.90;;;;;;5050106;28;20024;-83
2023/08/07 09:35:05;;;;;;;9.50;7.03;;;14.90;99.90;;;;;;5050227;28;20540;-83
2023/08/07 09:37:31;;;;;;;20.70;8.05;;;14.90;99.90;;;;;;5051601;28;20021;-83
2023/08/07 09:40:00;;;;;;;8.23;6.15;;;14.90;99.90;;;;;;5048136;28;20033;-80
2023/08/07 09:42:30;;;;;;;7.88;6.28;;;14.90;99.90;;;;;;5043477;28;20021;-79
2023/08/07 09:44:55;;;;;;;7.00;5.55;;;14.90;99.90;;;;;;5045503;28;20042;-80
2023/08/07 09:47:21;;;;;;;6.93;5.70;;;14.90;99.90;;;;;;5043613;28;20461;-79
2023/08/07 09:49:48;;;;;;;7.50;6.28;;;14.80;99.90;;;;;;5046144;28;20118;-79
2023/08/07 09:52:15;;;;;;;11.48;7.32;;;14.90;99.90;;;;;;5049151;28;20032;-83
2023/08/07 09:54:41;;;;;;;10.00;7.20;;;14.90;99.90;;;;;;5045541;28;20028;-84
2023/08/07 09:57:07;;;;;;;9.98;6.80;;;15.00;99.90;;;;;;5050991;28;20482;-84
2023/08/07 09:59:36;;;;;;;8.95;7.68;;;14.90;99.90;;;;;;5053020;28;20017;-84
2023/08/07 10:02:03;;;;;;;8.63;6.60;;;15.00;99.90;;;;;;5053873;28;20025;-81
2023/08/07 10:04:29;;;;;;;7.45;6.75;;;15.10;99.90;;;;;;5053538;28;20135;-83
2023/08/07 10:06:56;;;;;;;6.80;5.50;;;15.30;99.90;;;;;;5054992;28;20104;-83
2023/08/07 10:09:22;;;;;;;8.63;5.80;;;15.30;99.90;;;;;;5055065;28;20106;-83
2023/08/07 10:11:49;;;;;;;7.70;5.53;;;15.50;99.90;;;;;;5053201;28;20021;-83
2023/08/07 10:14:16;;;;;;;7.35;6.50;;;15.40;99.90;;;;;;5054165;28;20503;-83
2023/08/07 10:16:42;;;;;;;6.80;5.25;;;15.40;99.90;;;;;;5054840;28;20025;-82
2023/08/07 10:19:09;;;;;;;7.68;4.57;;;15.20;99.90;;;;;;5057020;28;20028;-82
2023/08/07 10:21:41;;;;;;;4.80;4.32;;;15.20;99.90;;;;;;5053981;28;20025;-83
2023/08/07 10:24:08;;;;;;;3.13;2.80;;;15.20;99.90;;;;;;5053582;28;20032;-83
2023/08/07 10:26:35;;;;;;;4.18;2.95;;;15.20;99.90;;;;;;5053786;28;20029;-82
2023/08/07 10:29:05;;;;;;;3.15;2.95;;;15.10;99.90;;;;;;5053734;28;20044;-82
2023/08/07 10:31:33;;;;;;;2.50;2.30;;;15.20;99.90;;;;;;5059820;28;20017;-84
2023/08/07 10:33:59;;;;;;;2.58;2.35;;;15.20;99.90;;;;;;5054972;28;20079;-84
2023/08/07 10:36:32;;;;;;;2.30;2.13;;;15.40;99.90;;;;;;5054769;28;20421;-82
2023/08/07 10:39:08;;;;;;;2.95;2.28;;;15.50;99.90;;;;;;5041339;28;20060;-84
2023/08/07 10:41:46;;;;;;;2.25;2.13;;;15.50;99.90;;;;;;5052023;28;20099;-84
2023/08/07 10:44:26;;;;;;;1.20;1.10;;;15.20;99.90;;;;;;5042867;28;20032;-84
2023/08/07 10:46:56;;;;;;;1.60;1.50;;;14.80;99.90;;;;;;5052667;28;20024;-83
2023/08/07 10:49:38;;;;;;;1.80;1.70;;;14.40;99.90;;;;;;5052634;28;20037;-82
2023/08/07 10:52:11;;;;;;;2.45;1.60;;;14.10;99.90;;;;;;5042889;28;20025;-81
2023/08/07 10:54:43;;;;;;;2.50;1.40;;;14.10;99.90;;;;;;5054008;28;20618;-84
2023/08/07 10:57:22;;;;;;;3.35;2.42;;;14.00;99.90;;;;;;5052133;28;20031;-82
2023/08/07 11:00:07;;;;;;;2.80;2.60;;;14.10;99.90;;;;;;5051167;28;20382;-81
2023/08/07 11:02:39;;;;;;;2.95;1.80;;;14.20;99.90;;;;;;5053904;28;20040;-82
2023/08/07 11:05:05;;;;;;;3.05;2.17;;;14.20;99.90;;;;;;5054125;28;20044;-84
2023/08/07 11:07:31;;;;;;;5.05;1.90;;;14.40;99.90;;;;;;5053103;28;20394;-81
2023/08/07 11:09:58;;;;;;;3.28;1.73;;;14.40;99.90;;;;;;5052665;28;20041;-84
2023/08/07 11:12:28;;;;;;;2.13;1.75;;;14.40;99.90;;;;;;5052390;28;20104;-84
2023/08/07 11:14:57;;;;;;;2.53;1.88;;;14.50;99.90;;;;;;5053807;28;20079;-84
2023/08/07 11:17:27;;;;;;;2.78;2.20;;;14.50;99.90;;;;;;5053392;28;20029;-84
2023/08/07 11:19:54;;;;;;;2.85;2.35;;;14.50;99.90;;;;;;5052424;28;20037;-83
2023/08/07 11:22:20;;;;;;;3.15;2.13;;;14.40;99.90;;;;;;5052771;28;20079;-83
2023/08/07 11:24:46;;;;;;;2.88;1.98;;;14.50;99.90;;;;;;5051251;28;20418;-81
2023/08/07 11:27:12;;;;;;;4.05;2.97;;;14.50;99.90;;;;;;5053246;28;20021;-81
2023/08/07 11:29:37;;;;;;;2.78;1.80;;;14.50;99.90;;;;;;5052205;28;20048;-83
2023/08/07 11:32:04;;;;;;;7.05;1.95;;;14.50;99.90;;;;;;5052004;28;20112;-82
2023/08/07 11:34:29;;;;;;;3.55;2.00;;;14.40;99.90;;;;;;5041995;28;20034;-83
2023/08/07 11:36:55;;;;;;;3.10;1.85;;;14.50;99.90;;;;;;5049570;28;20070;-84
2023/08/07 11:39:21;;;;;;;3.08;2.30;;;14.60;99.90;;;;;;5051895;28;20033;-83
2023/08/07 11:41:47;;;;;;;2.28;1.75;;;14.50;99.90;;;;;;5053109;28;20497;-81
2023/08/07 11:44:13;;;;;;;3.42;2.10;;;14.40;99.90;;;;;;5052041;28;20025;-82
2023/08/07 11:46:38;;;;;;;2.13;1.92;;;14.40;99.90;;;;;;5051866;28;20040;-83
2023/08/07 11:49:04;;;;;;;3.53;2.38;;;14.50;99.90;;;;;;5053021;28;20096;-82
2023/08/07 11:51:30;;;;;;;4.35;2.50;;;14.40;99.90;;;;;;5053093;28;20526;-81
2023/08/07 11:53:59;;;;;;;3.00;2.45;;;14.40;99.90;;;;;;5053665;28;20498;-81
2023/08/07 11:56:25;;;;;;;6.43;3.15;;;14.50;99.90;;;;;;5051768;28;20475;-81
2023/08/07 11:58:52;;;;;;;4.97;2.45;;;14.60;99.90;;;;;;5052972;28;20036;-81
2023/08/07 12:01:20;;;;;;;2.85;2.58;;;14.70;99.90;;;;;;5051699;28;20021;-83
2023/08/07 12:03:55;;;;;;;3.05;2.35;;;14.80;99.90;;;;;;5053028;28;20568;-81
2023/08/07 12:06:22;;;;;;;2.60;2.40;;;14.70;99.90;;;;;;5048071;28;20033;-83
2023/08/07 12:08:52;;;;;;;3.30;3.08;;;14.80;99.90;;;;;;5045229;28;20029;-83
2023/08/07 12:11:18;;;;;;;3.33;2.67;;;14.70;99.90;;;;;;5040854;28;20033;-83
2023/08/07 12:13:45;;;;;;;3.85;2.08;;;14.70;99.90;;;;;;5051489;28;20017;-81
2023/08/07 12:16:15;;;;;;;3.50;2.35;;;14.70;99.90;;;;;;5051667;28;20044;-84
2023/08/07 12:18:47;;;;;;;3.40;2.20;;;14.70;99.90;;;;;;5052561;28;20084;-83
2023/08/07 12:21:22;;;;;;;5.22;2.58;;;14.80;99.90;;;;;;5052897;28;20035;-81
2023/08/07 12:23:48;;;;;;;4.05;3.03;;;14.80;99.90;;;;;;5051384;28;20020;-81
2023/08/07 12:26:15;;;;;;;3.00;2.78;;;14.90;99.90;;;;;;5052986;28;20099;-81
2023/08/07 12:28:40;;;;;;;4.70;2.67;;;15.00;99.90;;;;;;5051261;28;20025;-82
2023/08/07 12:31:06;;;;;;;3.28;3.00;;;14.90;99.90;;;;;;5052668;28;20479;-82
2023/08/07 12:33:32;;;;;;;4.15;2.50;;;15.00;99.90;;;;;;5052484;28;20022;-81
2023/08/07 12:36:00;;;;;;;4.45;3.03;;;15.00;99.90;;;;;;5051778;28;20475;-81